Time;durP1;ratioP1;P1;durP2;ratioP2;P2;SDS_P1;SDS_P2;PMS_P1;PMS_P2;Temp;Humidity;BMP_temperature;BMP_pressure;BME280_temperature;BME280_humidity;BME280_pressure;Samples;Min_cycle;Max_cycle;Signal;HPM_P1;HPM_P2
2022/12/26 00:10:09;;;;;;;49.33;15.00;;;;;;;9.33;99.98;101016.63;20625464;28;20097;-69
2022/12/26 00:20:30;;;;;;;46.10;14.57;;;;;;;9.28;100.00;101023.66;20616913;28;20454;-69
2022/12/26 00:30:52;;;;;;;54.80;15.60;;;;;;;9.23;100.00;101015.16;20616154;28;20051;-69
2022/12/26 00:41:15;;;;;;;65.33;15.83;;;;;;;9.20;100.00;101012.63;20612163;28;20177;-69
2022/12/26 00:51:36;;;;;;;41.53;15.45;;;;;;;9.22;100.00;101010.84;20621282;28;20089;-68
2022/12/26 01:01:58;;;;;;;31.23;14.13;;;;;;;9.27;100.00;101012.47;20607490;28;20047;-68
2022/12/26 01:12:20;;;;;;;29.73;14.35;;;;;;;9.32;100.00;101004.63;20609432;28;20133;-68
2022/12/26 01:22:41;;;;;;;33.50;13.53;;;;;;;9.29;99.85;101012.41;20605534;28;20401;-68
2022/12/26 01:33:03;;;;;;;66.33;14.60;;;;;;;9.27;100.00;101014.19;20616070;28;20494;-68
2022/12/26 01:43:25;;;;;;;;;;;;;;;9.18;100.00;101019.53;20608871;28;20112;-68
2022/12/26 01:53:51;;;;;;;79.18;16.23;;;;;;;9.19;100.00;101023.84;20616593;28;19921;-68
2022/12/26 02:15:01;;;;;;;96.88;17.05;;;;;;;9.22;100.00;101034.94;20588475;28;20050;-68
2022/12/26 02:25:41;;;;;;;62.78;14.38;;;;;;;9.19;100.00;101029.00;20618482;28;20055;-68
2022/12/26 02:36:24;;;;;;;48.53;13.85;;;;;;;9.22;100.00;101023.75;20618036;28;20077;-68
2022/12/26 02:47:03;;;;;;;33.63;14.48;;;;;;;9.21;100.00;101022.91;20616693;28;20121;-68
2022/12/26 03:19:22;;;;;;;23.88;12.80;;;;;;;9.28;100.00;101016.75;20619813;28;20125;-68
2022/12/26 04:46:22;;;;;;;9.90;7.70;;;;;;;9.48;100.00;101021.47;20792580;28;20054;-64
2022/12/26 04:56:44;;;;;;;10.88;7.97;;;;;;;9.52;100.00;101033.44;20742766;28;20054;-62
2022/12/26 05:28:41;;;;;;;14.82;10.25;;;;;;;9.61;99.80;101023.75;20698571;28;20093;-63
2022/12/26 05:39:04;;;;;;;16.27;11.38;;;;;;;9.59;99.77;101014.34;20693996;28;20046;-62
2022/12/26 05:49:25;;;;;;;19.25;12.05;;;;;;;9.61;99.16;101018.59;20689115;28;20050;-62
2022/12/26 05:59:47;;;;;;;19.93;13.53;;;;;;;9.62;99.13;101034.91;20706242;28;20116;-63
2022/12/26 06:10:09;;;;;;;24.83;14.83;;;;;;;9.64;98.95;101031.41;20712735;28;20472;-62
2022/12/26 06:20:31;;;;;;;24.90;14.98;;;;;;;9.66;99.04;101041.72;20711349;28;20053;-62
2022/12/26 06:30:53;;;;;;;24.00;14.80;;;;;;;9.70;98.60;101043.34;20703817;28;20403;-63
2022/12/26 06:41:17;;;;;;;25.10;15.40;;;;;;;9.69;99.09;101054.56;20733070;28;20028;-62
2022/12/26 06:51:43;;;;;;;22.52;14.27;;;;;;;9.72;98.81;101047.63;20781411;28;20133;-62
2022/12/26 07:02:05;;;;;;;23.48;13.95;;;;;;;9.73;98.38;101049.28;20720687;28;20050;-62
2022/12/26 07:12:27;;;;;;;21.83;13.20;;;;;;;9.76;97.62;101025.13;20774081;28;20057;-63
2022/12/26 07:22:48;;;;;;;23.73;13.80;;;;;;;9.77;97.29;101029.41;20791215;28;20133;-63
2022/12/26 07:33:10;;;;;;;21.50;12.83;;;;;;;9.76;97.21;101018.22;20766372;28;20136;-63
2022/12/26 07:43:31;;;;;;;22.13;13.90;;;;;;;9.76;96.32;101017.38;20772184;28;20050;-63
2022/12/26 07:53:53;;;;;;;24.30;13.43;;;;;;;9.78;96.02;101028.50;20748520;28;20084;-62
2022/12/26 08:04:14;;;;;;;22.40;13.43;;;;;;;9.85;95.26;101025.75;20725028;28;20111;-63
2022/12/26 08:14:36;;;;;;;21.03;13.23;;;;;;;9.82;95.36;101023.25;20711742;28;20456;-63
2022/12/26 08:24:58;;;;;;;;;;;;;;;9.79;95.11;101017.28;20725215;28;20092;-63
2022/12/26 08:35:19;;;;;;;20.97;12.93;;;;;;;9.81;95.04;101008.63;20724395;28;19931;-64
2022/12/26 08:45:41;;;;;;;20.20;12.13;;;;;;;9.84;94.60;101023.19;20691596;28;20603;-63
2022/12/26 08:56:05;;;;;;;23.07;13.53;;;;;;;9.83;94.92;101044.78;20719544;28;20137;-64
2022/12/26 09:06:27;;;;;;;22.70;14.95;;;;;;;9.82;94.25;101043.06;20719743;28;20029;-64
2022/12/26 09:16:49;;;;;;;;;;;;;;;9.93;93.51;101041.94;20736057;28;20042;-65
2022/12/26 09:27:11;;;;;;;20.20;13.77;;;;;;;9.90;93.53;101030.81;20701125;28;19931;-65
2022/12/26 09:37:33;;;;;;;22.67;14.00;;;;;;;9.92;93.63;101027.31;20698201;28;20069;-65
2022/12/26 09:48:24;;;;;;;18.77;12.20;;;;;;;10.02;92.71;101031.34;20705775;28;20462;-63
2022/12/26 09:59:11;;;;;;;16.63;11.47;;;;;;;10.16;91.27;101018.13;20698704;22;20114;-67
2022/12/26 10:09:44;;;;;;;16.13;9.80;;;;;;;10.20;91.87;101019.72;20623513;28;20055;-67
2022/12/26 10:20:06;;;;;;;13.52;8.20;;;;;;;10.34;91.25;101007.31;20555310;28;20093;-67
2022/12/26 10:30:34;;;;;;;11.97;6.97;;;;;;;10.53;89.70;100998.16;20557863;28;20117;-68
2022/12/26 10:41:04;;;;;;;12.35;5.72;;;;;;;10.56;90.26;100995.50;20542354;28;20498;-68
2022/12/26 10:51:26;;;;;;;8.85;5.50;;;;;;;10.47;91.22;101018.19;20552657;28;20621;-68
2022/12/26 11:01:48;;;;;;;;;;;;;;;10.55;89.37;101014.50;20550734;28;20491;-67
2022/12/26 11:12:39;;;;;;;6.90;3.92;;;;;;;10.57;89.56;101010.13;20556272;28;20271;-67
2022/12/26 11:23:24;;;;;;;6.85;3.90;;;;;;;10.50;90.12;101018.94;20554487;28;20073;-67
2022/12/26 11:33:46;;;;;;;7.20;3.13;;;;;;;10.45;89.38;101028.56;20545796;28;20062;-68
2022/12/26 11:44:13;;;;;;;7.53;2.55;;;;;;;10.70;87.10;101052.03;20547491;28;20055;-67
2022/12/26 11:54:47;;;;;;;4.65;1.30;;;;;;;10.59;81.73;101091.16;20553580;28;20101;-68
2022/12/26 12:05:16;;;;;;;13.18;1.00;;;;;;;10.38;79.03;101116.72;20538074;28;20050;-69
2022/12/26 12:15:57;;;;;;;5.25;0.98;;;;;;;9.81;79.73;101162.84;20554734;28;20118;-67
2022/12/26 12:26:40;;;;;;;6.55;1.00;;;;;;;9.68;82.32;101139.00;20544761;28;20059;-68
2022/12/26 12:37:02;;;;;;;6.05;0.80;;;;;;;9.56;82.60;101164.25;20551288;28;20491;-69
2022/12/26 12:47:35;;;;;;;4.60;0.60;;;;;;;9.01;85.03;101201.41;20537224;28;20050;-68
2022/12/26 12:58:06;;;;;;;9.70;1.30;;;;;;;8.72;86.20;101224.28;20560826;28;20101;-68
2022/12/26 13:09:00;;;;;;;11.13;1.17;;;;;;;8.59;84.93;101243.41;20557193;28;20050;-68
2022/12/26 13:19:27;;;;;;;7.85;0.98;;;;;;;8.59;81.98;101265.78;20543372;28;20054;-68
2022/12/26 13:29:48;;;;;;;5.95;0.77;;;;;;;8.59;81.85;101281.25;20550641;28;20046;-69
2022/12/26 13:40:10;;;;;;;9.93;1.00;;;;;;;8.43;81.95;101319.28;20558676;28;20051;-67
2022/12/26 13:50:55;;;;;;;9.20;1.30;;;;;;;8.28;80.42;101324.66;20556780;28;20059;-69
2022/12/26 14:01:20;;;;;;;8.75;1.25;;;;;;;8.22;81.22;101355.66;20551868;28;20462;-69
2022/12/26 14:12:03;;;;;;;12.25;1.50;;;;;;;8.24;81.54;101360.78;20545378;28;20151;-68
2022/12/26 14:22:49;;;;;;;11.95;1.70;;;;;;;8.21;74.93;101384.00;20525801;28;20046;-69
2022/12/26 14:33:29;;;;;;;9.55;1.90;;;;;;;8.14;73.74;101398.69;20531817;28;20050;-68
2022/12/26 14:43:51;;;;;;;14.80;2.33;;;;;;;8.05;75.33;101411.66;20535585;28;20042;-67
2022/12/26 14:54:21;;;;;;;16.92;2.15;;;;;;;7.97;74.86;101431.50;20548162;28;20051;-68
2022/12/26 15:04:58;;;;;;;15.77;2.45;;;;;;;7.85;73.93;101429.06;20556735;28;20185;-67
2022/12/26 15:15:36;;;;;;;12.77;2.13;;;;;;;7.72;74.11;101450.63;20560201;28;20467;-67
2022/12/26 15:26:10;;;;;;;15.68;2.25;;;;;;;7.64;74.35;101478.16;20565907;28;20049;-67
2022/12/26 15:36:46;;;;;;;12.65;2.28;;;;;;;7.56;75.74;101485.09;20564331;28;20054;-68
2022/12/26 15:47:52;;;;;;;16.45;2.65;;;;;;;7.51;73.32;101492.84;20539081;28;20039;-67
2022/12/26 15:58:38;;;;;;;16.48;2.28;;;;;;;7.35;74.71;101508.41;20542754;28;20055;-68
2022/12/26 16:08:59;;;;;;;16.48;2.70;;;;;;;7.28;77.45;101514.44;20557810;28;20154;-68
2022/12/26 16:19:26;;;;;;;14.83;2.67;;;;;;;7.14;77.16;101522.25;20630738;22;20113;-64
2022/12/26 16:29:59;;;;;;;15.27;2.55;;;;;;;6.99;75.86;101543.78;20657123;28;20524;-64
2022/12/26 16:40:30;;;;;;;12.00;2.30;;;;;;;6.91;76.50;101549.78;20637228;28;20129;-64
2022/12/26 16:50:59;;;;;;;14.02;2.72;;;;;;;6.85;77.74;101552.38;20600853;28;20498;-64
2022/12/26 17:01:21;;;;;;;12.27;2.45;;;;;;;6.75;78.25;101573.84;20615684;28;20070;-63
2022/12/26 17:12:01;;;;;;;19.87;2.17;;;;;;;6.58;77.19;101571.31;20625693;28;20066;-64
2022/12/26 17:22:34;;;;;;;17.63;2.38;;;;;;;6.50;77.36;101587.63;20611514;28;20481;-64
2022/12/26 17:33:15;;;;;;;20.60;2.42;;;;;;;6.42;78.84;101600.47;20636872;28;20144;-64
2022/12/26 17:43:39;;;;;;;21.10;2.85;;;;;;;6.35;79.86;101609.03;20640639;28;20039;-64
2022/12/26 17:54:00;;;;;;;15.98;2.20;;;;;;;6.35;79.21;101626.16;20651161;28;20479;-65
2022/12/26 18:04:22;;;;;;;17.10;2.27;;;;;;;6.31;80.04;101635.59;20642734;28;20081;-64
2022/12/26 18:14:49;;;;;;;12.93;2.10;;;;;;;6.27;79.25;101641.59;20649361;28;20085;-64
2022/12/26 18:25:24;;;;;;;15.38;2.40;;;;;;;6.27;78.65;101649.28;20643705;28;20126;-64
2022/12/26 18:35:47;;;;;;;14.82;2.55;;;;;;;6.27;78.83;101659.56;20655932;28;20039;-63
2022/12/26 18:46:21;;;;;;;12.45;2.25;;;;;;;6.27;77.83;101669.84;20665980;28;20165;-64
2022/12/26 18:56:44;;;;;;;12.38;2.22;;;;;;;6.24;79.29;101672.44;20667479;28;20494;-63
2022/12/26 19:07:06;;;;;;;17.80;2.83;;;;;;;6.13;78.95;101680.09;20640369;28;20053;-63
2022/12/26 19:17:27;;;;;;;;;;;;;;;6.02;80.29;101706.63;20614719;28;20837;-63
2022/12/26 19:27:49;;;;;;;;;;;;;;;5.81;79.47;101701.38;20631201;28;20349;-64
2022/12/26 19:38:12;;;;;;;;;;;;;;;5.73;80.60;101718.50;20687553;28;19968;-62
2022/12/26 19:48:35;;;;;;;;;;;;;;;5.59;81.13;101735.53;20633390;28;19930;-61
2022/12/26 19:58:57;;;;;;;;;;;;;;;5.44;81.00;101738.88;20637126;28;19926;-63
2022/12/26 20:09:18;;;;;;;;;;;;;;;5.39;81.80;101745.69;20618416;28;19965;-63
2022/12/26 20:19:40;;;;;;;;;;;;;;;5.35;82.06;101755.94;20609855;28;19965;-63
2022/12/26 20:30:02;;;;;;;;;;;;;;;5.34;81.17;101769.59;20611122;28;19929;-63
2022/12/26 20:40:24;;;;;;;;;;;;;;;5.36;82.11;101773.91;20607846;28;19973;-63
2022/12/26 20:50:59;;;;;;;;;;;;;;;5.44;81.84;101781.66;20614690;28;19926;-61
2022/12/26 21:01:21;;;;;;;;;;;;;;;5.46;81.52;101785.06;20619810;28;20359;-61
2022/12/26 21:11:44;;;;;;;;;;;;;;;5.54;80.55;101829.63;20611019;28;19953;-63
2022/12/26 21:22:05;;;;;;;;;;;;;;;5.49;82.88;101800.50;20610017;28;19930;-64
2022/12/26 21:32:27;;;;;;;;;;;;;;;5.42;83.96;101820.13;20607758;28;19926;-63
2022/12/26 21:42:48;;;;;;;;;;;;;;;5.38;82.53;101808.16;20616804;28;19929;-65
2022/12/26 21:53:10;;;;;;;;;;;;;;;5.33;82.59;101820.06;20662163;28;20501;-66
2022/12/26 22:14:25;;;;;;;;;;;;;;;5.16;82.79;101836.19;20653550;28;19925;-57
2022/12/26 22:24:47;;;;;;;;;;;;;;;5.14;82.71;101851.56;20696643;28;20004;-60
2022/12/26 22:35:08;;;;;;;;;;;;;;;5.02;82.72;101865.13;20697617;28;20407;-60
2022/12/26 22:45:40;;;;;;;;;;;;;;;4.94;82.75;101859.06;20695535;28;19925;-60
2022/12/26 22:56:03;;;;;;;;;;;;;;;4.88;82.16;101860.72;20717851;28;19933;-60
2022/12/26 23:06:29;;;;;;;;;;;;;;;4.81;82.26;101875.19;20710003;28;19991;-60
2022/12/26 23:16:53;;;;;;;;;;;;;;;4.84;82.54;101875.22;20702737;28;19949;-60
2022/12/26 23:37:55;;;;;;;;;;;;;;;4.87;81.96;101869.28;20712846;28;20684;-61
2022/12/26 23:48:16;;;;;;;;;;;;;;;4.79;81.70;101876.88;20709844;28;20020;-61
2022/12/26 23:58:41;;;;;;;;;;;;;;;4.73;81.56;101887.06;20719968;28;19961;-61
